Nearby METAR Reports

 

KSYN - Stanton, Minnesota, USA
Distance from station: NW 20mi, 33km
Updated: Tue, 16-Oct-2018 10:55pm CDT
Clear
Clear
 Wind from NW
Wind: NW 8 mph , 13 km/h
Temperature: 39°F , 4°C
Wind Chill: 33°F , 1°C
Dew Point: 28°F , -2°C
Humidity: 65%
Barometer: 30.14 inHg , 1020.7 hPa
Clouds: Clear
Visibility: 10 miles , 16 km
2018/10/17 03:55 KSYN 170355Z AUTO 32007KT 10SM CLR 04/M02 A3014 RMK AO2 T00361016
KTOB - Dodge Center, Minnesota, USA
Distance from station: SSW 21mi, 34km
Updated: Tue, 16-Oct-2018 10:55pm CDT
Partly cloudy
Partly cloudy
 Wind from WNW
Wind: WNW 6 mph , 9 km/h
Temperature: 37°F , 3°C
Wind Chill: 32°F , 0°C
Dew Point: 28°F , -2°C
Humidity: 70%
Barometer: 30.13 inHg , 1020.3 hPa
Clouds: Partly cloudy
Visibility: 10 miles , 16 km
Cloud details: Partly cloudy 9000 ft
2018/10/17 03:55 KTOB 170355Z AUTO 29005KT 10SM SCT090 03/M02 A3013 RMK AO2
 
K9MN - St Mary Hospital, Minnesota, USA
Distance from station: SSE 22mi, 35km
Updated: Tue, 16-Oct-2018 10:55pm CDT
Clear
Clear
 Wind from WNW
Wind: WNW 10 mph , 17 km/h, Gust: 16 mph , 26 km/h
Temperature: 41°F , 5°C
Wind Chill: 35°F , 2°C
Dew Point: 30°F , -1°C
Humidity: 66%
Barometer: 30.13 inHg , 1020.3 hPa
Clouds: Clear
Visibility: 10 miles , 16 km
2018/10/17 03:55 K9MN 170355Z AUTO 29009G14KT 10SM CLR 05/M01 A3013 RMK AO1 T00531014
KRGK - Red Wing, Minnesota, USA
Distance from station: NNE 22mi, 35km
Updated: Tue, 16-Oct-2018 10:56pm CDT
Clear
Clear
 Wind from NW
Wind: NW 7 mph , 11 km/h
Temperature: 39°F , 4°C
Wind Chill: 34°F , 1°C
Dew Point: 23°F , -5°C
Humidity: 52%
Barometer: 30.13 inHg , 1020.3 hPa
Clouds: Clear
Visibility: 10 miles , 16 km
2018/10/17 03:56 KRGK 170356Z AUTO 31006KT 10SM CLR 04/M05 A3013 RMK AO2
 
KRST - Rochester, Minnesota, USA
Distance from station: SSE 29mi, 47km
Updated: Tue, 16-Oct-2018 10:54pm CDT
Clear
Clear
 Wind from WNW
Wind: WNW 7 mph , 11 km/h
Temperature: 37°F , 3°C
Wind Chill: 32°F , 0°C
Dew Point: 30°F , -1°C
Humidity: 75%
Barometer: 30.13 inHg , 1020.3 hPa
Clouds: Clear
Visibility: 10 miles , 16 km
2018/10/17 03:54 KRST 170354Z AUTO 30006KT 10SM CLR 03/M01 A3013 RMK AO2 SLP211 T00281011
KOWA - Owatonna, Minnesota, USA
Distance from station: WSW 31mi, 50km
Updated: Tue, 16-Oct-2018 11:13pm CDT
Clear
Clear
 Wind from WNW
Wind: WNW 6 mph , 9 km/h
Temperature: 36°F , 2°C
Wind Chill: 31°F , -1°C
Dew Point: 30°F , -1°C
Humidity: 81%
Barometer: 30.16 inHg , 1021.3 hPa
Clouds: Clear
Visibility: 10 miles , 16 km
2018/10/17 04:13 KOWA 170413Z AUTO 30005KT 10SM CLR 02/M01 A3016 RMK AO2
 
KFBL - Faribault Muni, Minnesota, USA
Distance from station: W 32mi, 51km
Updated: Thu, 20-Sep-2018 6:41pm CDT
NOT Current

 Wind from SSE
Wind: SSE 18 mph , 30 km/h, Gust: 45 mph , 72 km/h
Visibility: 4 miles , 6 km
2018/09/20 23:41 KFBL 202341Z AUTO 15016G39KT 122V182 4SM +VCTSRA SCT010 BKN070 21/21 A2951 RMK AO2 P0008 LTG DSNT ALQDS
KSGS - South St Paul, Minnesota, USA
Distance from station: NNW 43mi, 69km
Updated: Tue, 16-Oct-2018 10:55pm CDT
Clear
Clear
 Wind from NNW
Wind: NNW 14 mph , 22 km/h, Gust: 17 mph , 28 km/h
Temperature: 39°F , 4°C
Wind Chill: 31°F , -1°C
Dew Point: 27°F , -3°C
Humidity: 61%
Barometer: 30.14 inHg , 1020.7 hPa
Clouds: Clear
Visibility: 10 miles , 16 km
2018/10/17 03:55 KSGS 170355Z AUTO 33012G15KT 10SM CLR 04/M03 A3014 RMK AO2 T00421028
 
KAUM - Austin Muni, Minnesota, USA
Distance from station: SSW 46mi, 73km
Updated: Tue, 16-Oct-2018 10:56pm CDT
Clear
Clear
 Wind from WNW
Wind: WNW 7 mph , 11 km/h
Temperature: 39°F , 4°C
Wind Chill: 34°F , 1°C
Dew Point: 28°F , -2°C
Humidity: 65%
Barometer: 30.15 inHg , 1021 hPa
Clouds: Clear
Visibility: 10 miles , 16 km
2018/10/17 03:56 KAUM 170356Z AUTO 29006KT 10SM CLR 04/M02 A3015 RMK AO2
KACQ - Waseca, Minnesota, USA
Distance from station: WSW 46mi, 75km
Updated: Tue, 16-Oct-2018 10:55pm CDT
Clear
Clear
 Wind from WNW
Wind: WNW 5 mph , 7 km/h
Temperature: 36°F , 2°C
Wind Chill: 32°F , 0°C
Dew Point: 30°F , -1°C
Humidity: 81%
Barometer: 30.18 inHg , 1022 hPa
Clouds: Clear
Visibility: 10 miles , 16 km
2018/10/17 03:55 KACQ 170355Z AUTO 29004KT 10SM CLR 02/M01 A3018 RMK AO2
 
KSTP - St. Paul, Minnesota, USA
Distance from station: NNW 47mi, 76km
Updated: Tue, 16-Oct-2018 10:53pm CDT
Few Clouds
Few Clouds
 Wind from NW
Wind: NW 12 mph , 19 km/h
Temperature: 39°F , 4°C
Wind Chill: 32°F , 0°C
Dew Point: 27°F , -3°C
Humidity: 61%
Barometer: 30.16 inHg , 1021.3 hPa
Clouds: Few Clouds
Visibility: 10 miles , 16 km
Cloud details: Few Clouds 4500 ft
2018/10/17 03:53 KSTP 170353Z AUTO 32010KT 10SM FEW045 04/M03 A3016 RMK AO2 SLP215 T00391028
KMSP - Minneapolis, Minnesota, USA
Distance from station: NW 49mi, 78km
Updated: Tue, 16-Oct-2018 10:53pm CDT
Mostly cloudy
Mostly cloudy
 Wind from NW
Wind: NW 14 mph , 22 km/h
Temperature: 39°F , 4°C
Wind Chill: 31°F , -1°C
Dew Point: 28°F , -2°C
Humidity: 65%
Barometer: 30.15 inHg , 1021 hPa
Clouds: Mostly cloudy
Visibility: 10 miles , 16 km
Cloud details: Mostly cloudy 4500 ft
2018/10/17 03:53 KMSP 170353Z 32012KT 10SM BKN045 04/M02 A3015 RMK AO2 SLP216 T00441017